createdAt,value
2022-11-21T00:00:41.749Z,6.70
2022-11-21T00:03:10.202Z,6.22
2022-11-21T00:05:41.617Z,6.50
2022-11-21T00:08:09.610Z,6.85
2022-11-21T00:10:38.121Z,6.40
2022-11-21T00:13:06.003Z,7.10
2022-11-21T00:15:33.753Z,6.10
2022-11-21T00:18:02.860Z,6.70
2022-11-21T00:20:29.598Z,6.78
2022-11-21T00:22:56.346Z,6.22
2022-11-21T00:25:22.883Z,6.70
2022-11-21T00:27:49.618Z,6.93
2022-11-21T00:30:16.309Z,6.72
2022-11-21T00:32:43.017Z,6.88
2022-11-21T00:35:09.655Z,6.50
2022-11-21T00:37:36.252Z,7.20
2022-11-21T00:40:03.780Z,6.80
2022-11-21T00:42:30.419Z,7.70
2022-11-21T00:44:57.191Z,8.27
2022-11-21T00:47:24.055Z,7.40
2022-11-21T00:49:50.754Z,8.00
2022-11-21T00:52:18.355Z,7.65
2022-11-21T00:54:45.008Z,8.70
2022-11-21T00:57:11.608Z,7.38
2022-11-21T00:59:38.238Z,7.13
2022-11-21T01:02:05.553Z,7.93
2022-11-21T01:04:33.741Z,7.35
2022-11-21T01:07:00.595Z,7.72
2022-11-21T01:09:28.661Z,7.68
2022-11-21T01:11:56.580Z,7.18
2022-11-21T01:14:23.812Z,8.32
2022-11-21T01:16:50.575Z,7.53
2022-11-21T01:19:17.346Z,7.13
2022-11-21T01:21:44.028Z,6.95
2022-11-21T01:24:12.494Z,6.93
2022-11-21T01:26:39.211Z,7.95
2022-11-21T01:29:07.186Z,7.47
2022-11-21T01:31:33.914Z,7.30
2022-11-21T01:34:01.291Z,7.57
2022-11-21T01:36:33.158Z,7.55
2022-11-21T01:39:02.326Z,8.50
2022-11-21T01:41:48.212Z,7.10
2022-11-21T01:44:46.856Z,7.60
2022-11-21T01:47:13.945Z,8.07
2022-11-21T01:49:43.681Z,7.40
2022-11-21T01:52:15.399Z,6.80
2022-11-21T01:54:41.952Z,7.18
2022-11-21T01:57:12.793Z,7.63
2022-11-21T01:59:41.252Z,7.63
2022-11-21T02:02:10.762Z,7.80
2022-11-21T02:04:41.030Z,7.05
2022-11-21T02:07:08.169Z,7.38
2022-11-21T02:09:37.661Z,7.78
2022-11-21T02:12:15.627Z,7.50
2022-11-21T02:14:43.928Z,7.18
2022-11-21T02:17:12.076Z,7.20
2022-11-21T02:19:55.397Z,7.80
2022-11-21T02:22:35.634Z,7.55
2022-11-21T02:25:08.226Z,7.32
2022-11-21T02:27:35.100Z,7.35
2022-11-21T02:30:03.764Z,7.75
2022-11-21T02:32:48.417Z,6.75
2022-11-21T02:35:17.551Z,6.93
2022-11-21T02:37:51.760Z,7.00
2022-11-21T02:40:22.702Z,7.20
2022-11-21T02:43:21.774Z,7.28
2022-11-21T02:45:48.405Z,7.65
2022-11-21T02:48:15.567Z,7.70
2022-11-21T02:50:46.683Z,7.75
2022-11-21T02:53:15.908Z,7.35
2022-11-21T02:55:43.322Z,8.45
2022-11-21T02:58:10.584Z,7.55
2022-11-21T03:00:41.084Z,7.13
2022-11-21T03:03:08.208Z,7.88
2022-11-21T03:05:35.475Z,7.40
2022-11-21T03:08:02.313Z,9.00
2022-11-21T03:10:29.001Z,8.32
2022-11-21T03:13:01.293Z,8.82
2022-11-21T03:15:34.144Z,9.57
2022-11-21T03:18:03.215Z,9.43
2022-11-21T03:20:33.219Z,9.80
2022-11-21T03:22:59.901Z,9.82
2022-11-21T03:25:27.294Z,9.45
2022-11-21T03:27:54.257Z,9.88
2022-11-21T03:30:22.518Z,9.65
2022-11-21T03:32:49.252Z,10.52
2022-11-21T03:35:16.235Z,10.45
2022-11-21T03:37:43.155Z,11.05
2022-11-21T03:40:10.582Z,10.63
2022-11-21T03:42:37.234Z,10.85
2022-11-21T03:45:04.503Z,11.00
2022-11-21T03:47:31.289Z,10.95
2022-11-21T03:49:57.897Z,11.13
2022-11-21T03:52:24.544Z,11.07
2022-11-21T03:54:51.285Z,10.80
2022-11-21T03:57:17.838Z,10.23
2022-11-21T03:59:44.466Z,10.27
2022-11-21T04:02:11.042Z,10.93
2022-11-21T04:04:37.707Z,10.68
2022-11-21T04:07:04.346Z,10.75
2022-11-21T04:09:30.939Z,10.23
2022-11-21T04:11:57.670Z,10.73
2022-11-21T04:14:24.251Z,10.38
2022-11-21T04:16:50.927Z,10.45
2022-11-21T04:19:17.590Z,11.05
2022-11-21T04:21:44.235Z,10.73
2022-11-21T04:24:10.981Z,10.23
2022-11-21T04:26:37.621Z,10.52
2022-11-21T04:29:04.152Z,11.25
2022-11-21T04:31:30.762Z,9.82
2022-11-21T04:33:57.418Z,10.43
2022-11-21T04:36:24.080Z,10.15
2022-11-21T04:38:50.750Z,9.98
2022-11-21T04:41:17.333Z,10.80
2022-11-21T04:43:43.961Z,10.13
2022-11-21T04:46:10.646Z,10.20
2022-11-21T04:48:37.336Z,10.23
2022-11-21T04:51:03.978Z,10.70
2022-11-21T04:53:30.623Z,11.15
2022-11-21T04:55:57.305Z,10.32
2022-11-21T04:58:23.898Z,11.15
2022-11-21T05:00:50.558Z,11.18
2022-11-21T05:03:17.197Z,11.05
2022-11-21T05:05:43.830Z,11.48
2022-11-21T05:08:10.427Z,11.55
2022-11-21T05:10:56.973Z,10.55
2022-11-21T05:13:23.649Z,11.35
2022-11-21T05:15:56.897Z,11.25
2022-11-21T05:18:23.544Z,10.88
2022-11-21T05:20:50.121Z,10.75
2022-11-21T05:23:16.713Z,10.82
2022-11-21T05:25:43.343Z,10.32
2022-11-21T05:28:10.044Z,10.75
2022-11-21T05:30:37.746Z,11.57
2022-11-21T05:35:43.629Z,10.85
2022-11-21T05:38:09.828Z,11.55
2022-11-21T05:40:35.691Z,10.90
2022-11-21T05:43:20.239Z,12.65
2022-11-21T05:45:50.091Z,12.48
2022-11-21T05:48:17.535Z,12.73
2022-11-21T05:50:48.426Z,12.02
2022-11-21T05:53:15.598Z,11.35
2022-11-21T05:55:42.337Z,11.82
2022-11-21T05:58:10.755Z,12.40
2022-11-21T06:00:38.152Z,11.40
2022-11-21T06:03:24.477Z,12.10
2022-11-21T06:05:51.219Z,11.65
2022-11-21T06:08:17.960Z,11.52
2022-11-21T06:10:44.859Z,12.00
2022-11-21T06:13:23.724Z,11.40
2022-11-21T06:16:00.939Z,11.25
2022-11-21T06:18:29.082Z,11.80
2022-11-21T06:21:21.015Z,12.55
2022-11-21T06:23:50.095Z,11.95
2022-11-21T06:26:20.029Z,12.93
2022-11-21T06:28:47.929Z,12.90
2022-11-21T06:31:17.645Z,13.05
2022-11-21T06:33:45.161Z,11.65
2022-11-21T06:36:16.121Z,13.00
2022-11-21T06:38:44.541Z,13.25
2022-11-21T06:41:12.417Z,13.82
2022-11-21T06:43:39.148Z,14.25
2022-11-21T06:46:06.057Z,13.32
2022-11-21T06:48:34.101Z,14.13
2022-11-21T06:51:13.571Z,14.48
2022-11-21T06:53:40.213Z,13.88
2022-11-21T06:56:06.994Z,14.38
2022-11-21T06:58:33.724Z,12.75
2022-11-21T07:01:06.070Z,13.90
2022-11-21T07:03:33.473Z,13.52
2022-11-21T07:06:04.067Z,13.98
2022-11-21T07:08:32.439Z,13.30
2022-11-21T07:11:24.448Z,14.00
2022-11-21T07:13:51.428Z,12.23
2022-11-21T07:16:18.047Z,12.73
2022-11-21T07:18:45.547Z,12.32
2022-11-21T07:21:12.249Z,12.65
2022-11-21T07:23:38.954Z,13.30
2022-11-21T07:26:08.133Z,12.70
2022-11-21T07:28:35.379Z,11.95
2022-11-21T07:31:07.047Z,12.38
2022-11-21T07:33:35.257Z,13.50
2022-11-21T07:36:01.944Z,13.73
2022-11-21T07:38:28.533Z,13.52
2022-11-21T07:40:58.377Z,13.25
2022-11-21T07:43:25.047Z,12.75
2022-11-21T07:45:51.627Z,14.27
2022-11-21T07:48:18.200Z,12.77
2022-11-21T07:50:45.091Z,14.77
2022-11-21T07:53:11.899Z,15.35
2022-11-21T07:55:40.756Z,15.63
2022-11-21T07:58:10.580Z,16.00
2022-11-21T08:00:39.837Z,15.35
2022-11-21T08:03:07.252Z,15.68
2022-11-21T08:05:37.895Z,15.60
2022-11-21T08:08:08.621Z,13.98
2022-11-21T08:10:40.297Z,14.13
2022-11-21T08:13:07.092Z,13.63
2022-11-21T08:15:33.666Z,13.38
2022-11-21T08:18:07.920Z,13.27
2022-11-21T08:20:34.610Z,13.45
2022-11-21T08:23:01.520Z,14.38
2022-11-21T08:25:28.113Z,12.60
2022-11-21T08:27:58.408Z,14.10
2022-11-21T08:30:25.945Z,15.00
2022-11-21T08:32:52.529Z,16.70
2022-11-21T08:35:19.245Z,15.65
2022-11-21T08:37:46.042Z,14.88
2022-11-21T08:40:12.612Z,14.20
2022-11-21T08:42:39.246Z,14.73
2022-11-21T08:45:06.484Z,14.20
2022-11-21T08:47:34.246Z,14.50
2022-11-21T08:50:05.795Z,14.85
2022-11-21T08:52:35.453Z,13.93
2022-11-21T08:55:02.373Z,15.10
2022-11-21T08:57:28.955Z,15.82
2022-11-21T08:59:55.621Z,16.40
2022-11-21T09:02:22.387Z,16.08
2022-11-21T09:04:49.520Z,15.93
2022-11-21T09:07:17.411Z,16.45
2022-11-21T09:09:44.066Z,15.52
2022-11-21T09:12:10.710Z,15.70
2022-11-21T09:14:55.614Z,14.27
2022-11-21T09:17:40.799Z,14.45
2022-11-21T09:20:08.400Z,14.20
2022-11-21T09:22:35.034Z,14.50
2022-11-21T09:25:01.735Z,14.43
2022-11-21T09:27:28.354Z,14.23
2022-11-21T09:29:54.953Z,14.68
2022-11-21T09:32:21.791Z,13.32
2022-11-21T09:34:48.523Z,12.23
2022-11-21T09:37:15.251Z,12.63
2022-11-21T09:39:41.827Z,12.45
2022-11-21T09:42:26.534Z,11.85
2022-11-21T09:45:05.895Z,12.32
2022-11-21T09:47:37.065Z,11.30
2022-11-21T09:50:12.730Z,11.32
2022-11-21T09:53:05.360Z,10.25
2022-11-21T09:55:34.901Z,10.57
2022-11-21T09:58:42.367Z,9.93
2022-11-21T10:01:12.554Z,9.68
2022-11-21T10:03:47.402Z,10.20
2022-11-21T10:06:17.217Z,9.82
2022-11-21T10:09:07.752Z,9.02
2022-11-21T10:12:18.137Z,8.95
2022-11-21T10:14:50.535Z,9.07
2022-11-21T10:17:37.157Z,8.48
2022-11-21T10:20:32.760Z,7.55
2022-11-21T10:23:22.282Z,7.43
2022-11-21T10:26:05.048Z,6.80
2022-11-21T10:28:55.465Z,7.93
2022-11-21T10:31:22.998Z,7.10
2022-11-21T10:33:53.337Z,8.05
2022-11-21T10:36:27.429Z,8.00
2022-11-21T10:39:01.034Z,8.02
2022-11-21T10:41:40.594Z,7.47
2022-11-21T10:44:42.708Z,6.88
2022-11-21T10:47:30.964Z,7.22
2022-11-21T10:50:18.009Z,7.47
2022-11-21T10:52:50.798Z,7.43
2022-11-21T10:55:18.329Z,6.55
2022-11-21T10:57:46.721Z,7.35
2022-11-21T11:00:14.955Z,6.38
2022-11-21T11:03:05.048Z,6.15
2022-11-21T11:05:38.392Z,5.95
2022-11-21T11:08:08.874Z,5.90
2022-11-21T11:11:06.237Z,5.78
2022-11-21T11:13:51.706Z,5.78
2022-11-21T11:16:21.403Z,6.43
2022-11-21T11:19:00.096Z,6.50
2022-11-21T11:21:28.214Z,6.60
2022-11-21T11:24:07.109Z,6.60
2022-11-21T11:26:34.142Z,6.57
2022-11-21T11:29:14.399Z,7.63
2022-11-21T11:31:45.998Z,7.32
2022-11-21T11:34:15.078Z,7.13
2022-11-21T11:36:56.486Z,6.88
2022-11-21T11:39:26.253Z,7.75
2022-11-21T11:42:30.490Z,7.45
2022-11-21T11:45:15.506Z,6.70
2022-11-21T11:47:59.742Z,6.97
2022-11-21T11:50:31.866Z,6.95
2022-11-21T11:53:15.672Z,6.80
2022-11-21T11:55:47.412Z,6.57
2022-11-21T11:58:29.588Z,6.20
2022-11-21T12:01:10.328Z,7.15
2022-11-21T12:03:37.018Z,6.45
2022-11-21T12:06:09.923Z,6.20
2022-11-21T12:09:15.033Z,5.63
2022-11-21T12:12:09.268Z,5.60
2022-11-21T12:15:13.077Z,5.22
2022-11-21T12:18:24.002Z,5.45
2022-11-21T12:21:02.859Z,5.82
2022-11-21T12:23:47.284Z,5.63
2022-11-21T12:26:35.184Z,6.65
2022-11-21T12:29:20.624Z,6.70
2022-11-21T12:32:06.073Z,5.65
2022-11-21T12:35:10.714Z,5.65
2022-11-21T12:38:05.105Z,5.63
2022-11-21T12:40:50.224Z,5.85
2022-11-21T12:43:35.330Z,5.95
2022-11-21T12:46:11.029Z,5.53
2022-11-21T12:49:08.726Z,5.45
2022-11-21T12:51:57.097Z,4.93
2022-11-21T12:54:40.655Z,6.07
2022-11-21T12:57:18.793Z,4.78
2022-11-21T13:00:09.760Z,4.80
2022-11-21T13:02:55.086Z,4.10
2022-11-21T13:05:45.521Z,4.95
2022-11-21T13:08:24.454Z,4.20
2022-11-21T13:11:50.923Z,4.40
2022-11-21T13:14:39.561Z,4.32
2022-11-21T13:17:31.123Z,4.90
2022-11-21T13:20:16.405Z,4.35
2022-11-21T13:22:47.229Z,4.60
2022-11-21T13:25:40.635Z,4.38
2022-11-21T13:28:13.239Z,3.97
2022-11-21T13:31:31.288Z,4.85
2022-11-21T13:33:58.617Z,4.75
2022-11-21T13:36:28.346Z,5.20
2022-11-21T13:38:54.918Z,5.63
2022-11-21T13:41:55.645Z,4.68
2022-11-21T13:44:31.744Z,5.57
2022-11-21T13:47:25.755Z,5.43
2022-11-21T13:50:14.797Z,5.20
2022-11-21T13:52:54.784Z,4.88
2022-11-21T13:55:47.399Z,5.18
2022-11-21T13:58:26.935Z,5.93
2022-11-21T14:01:12.461Z,5.47
2022-11-21T14:04:01.065Z,5.65
2022-11-21T14:06:36.510Z,5.57
2022-11-21T14:09:23.277Z,6.03
2022-11-21T14:11:52.308Z,5.70
2022-11-21T14:14:31.507Z,6.80
2022-11-21T14:17:16.633Z,5.95
2022-11-21T14:19:43.443Z,5.97
2022-11-21T14:22:30.487Z,5.90
2022-11-21T14:25:01.119Z,5.72
2022-11-21T14:27:35.322Z,5.93
2022-11-21T14:30:02.016Z,5.13
2022-11-21T14:32:30.119Z,5.07
2022-11-21T14:35:20.590Z,5.30
2022-11-21T14:37:48.191Z,5.13
2022-11-21T14:40:21.893Z,5.28
2022-11-21T14:42:48.738Z,5.32
2022-11-21T14:45:17.491Z,5.10
2022-11-21T14:47:48.895Z,7.05
2022-11-21T14:50:23.773Z,6.30
2022-11-21T14:52:57.441Z,6.53
2022-11-21T14:55:30.786Z,5.78
2022-11-21T14:58:01.472Z,6.75
2022-11-21T15:03:23.259Z,6.22
2022-11-21T15:06:04.475Z,6.70
2022-11-21T15:11:29.496Z,7.03
2022-11-21T15:14:18.256Z,6.35
2022-11-21T15:16:51.310Z,6.60
2022-11-21T15:19:27.478Z,6.30
2022-11-21T15:21:57.427Z,6.10
2022-11-21T15:24:31.311Z,6.40
2022-11-21T15:26:58.934Z,6.53
2022-11-21T15:29:25.590Z,6.72
2022-11-21T15:32:16.444Z,6.68
2022-11-21T15:34:43.944Z,6.75
2022-11-21T15:37:18.087Z,6.75
2022-11-21T15:39:50.222Z,7.45
2022-11-21T15:42:36.262Z,7.75
2022-11-21T15:45:16.717Z,7.53
2022-11-21T15:47:47.064Z,8.13
2022-11-21T15:50:14.756Z,7.35
2022-11-21T15:52:45.292Z,11.82
2022-11-21T15:55:17.876Z,25.15
2022-11-21T15:57:44.633Z,17.63
2022-11-21T16:00:11.809Z,11.30
2022-11-21T16:02:38.411Z,10.85
2022-11-21T16:05:05.776Z,9.65
2022-11-21T16:07:32.504Z,10.00
2022-11-21T16:09:59.211Z,7.70
2022-11-21T16:12:25.873Z,7.28
2022-11-21T16:14:52.436Z,6.57
2022-11-21T16:17:19.426Z,6.55
2022-11-21T16:19:46.255Z,6.53
2022-11-21T16:22:12.965Z,7.03
2022-11-21T16:24:39.565Z,7.07
2022-11-21T16:27:06.238Z,7.35
2022-11-21T16:29:32.967Z,7.93
2022-11-21T16:31:59.619Z,7.47
2022-11-21T16:34:27.533Z,8.68
2022-11-21T16:36:55.090Z,7.82
2022-11-21T16:39:21.866Z,8.48
2022-11-21T16:41:49.412Z,7.53
2022-11-21T16:44:16.786Z,7.43
2022-11-21T16:46:47.229Z,9.75
2022-11-21T16:49:14.239Z,12.98
2022-11-21T16:51:41.035Z,8.43
2022-11-21T16:54:09.430Z,7.90
2022-11-21T16:56:36.420Z,8.45
2022-11-21T16:59:03.078Z,8.65
2022-11-21T17:01:29.833Z,8.45
2022-11-21T17:03:56.610Z,6.15
2022-11-21T17:06:27.251Z,6.95
2022-11-21T17:08:54.275Z,7.68
2022-11-21T17:11:23.358Z,7.68
2022-11-21T17:13:51.337Z,8.25
2022-11-21T17:16:21.607Z,8.65
2022-11-21T17:18:52.645Z,8.02
2022-11-21T17:21:19.274Z,9.05
2022-11-21T17:23:46.274Z,8.57
2022-11-21T17:26:15.572Z,8.15
2022-11-21T17:28:45.808Z,8.85
2022-11-21T17:31:15.607Z,10.90
2022-11-21T17:33:43.571Z,9.57
2022-11-21T17:36:14.869Z,11.05
2022-11-21T17:38:43.161Z,8.30
2022-11-21T17:41:13.705Z,11.27
2022-11-21T17:43:40.885Z,9.80
2022-11-21T17:46:11.783Z,9.35
2022-11-21T17:48:38.884Z,6.43
2022-11-21T17:51:09.435Z,7.05
2022-11-21T17:53:42.085Z,5.40
2022-11-21T17:56:12.411Z,5.82
2022-11-21T17:58:39.170Z,9.52
2022-11-21T18:01:07.640Z,5.53
2022-11-21T18:03:35.697Z,6.47
2022-11-21T18:06:08.317Z,5.63
2022-11-21T18:08:39.761Z,5.00
2022-11-21T18:11:09.831Z,5.57
2022-11-21T18:13:37.370Z,5.90
2022-11-21T18:16:06.988Z,5.40
2022-11-21T18:18:35.322Z,9.15
2022-11-21T18:21:06.845Z,8.52
2022-11-21T18:23:34.362Z,5.07
2022-11-21T18:26:05.874Z,6.15
2022-11-21T18:28:33.234Z,8.02
2022-11-21T18:31:11.019Z,6.30
2022-11-21T18:33:38.386Z,5.53
2022-11-21T18:36:06.819Z,5.72
2022-11-21T18:38:57.791Z,7.75
2022-11-21T18:41:30.152Z,7.35
2022-11-21T18:44:00.042Z,8.95
2022-11-21T18:46:28.489Z,8.50
2022-11-21T18:49:06.323Z,7.78
2022-11-21T18:51:34.418Z,8.25
2022-11-21T18:54:11.372Z,7.55
2022-11-21T18:56:39.834Z,7.35
2022-11-21T18:59:07.048Z,6.20
2022-11-21T19:01:35.795Z,7.03
2022-11-21T19:04:02.732Z,6.57
2022-11-21T19:06:29.939Z,6.20
2022-11-21T19:08:58.068Z,6.50
2022-11-21T19:11:27.641Z,7.00
2022-11-21T19:13:55.354Z,7.30
2022-11-21T19:16:24.975Z,6.72
2022-11-21T19:21:42.660Z,6.50
2022-11-21T19:24:14.273Z,6.70
2022-11-21T19:26:42.029Z,6.43
2022-11-21T19:29:09.281Z,7.13
2022-11-21T19:31:41.065Z,8.27
2022-11-21T19:34:11.140Z,7.30
2022-11-21T19:36:39.309Z,6.90
2022-11-21T19:39:05.943Z,9.05
2022-11-21T19:41:32.533Z,7.72
2022-11-21T19:44:00.649Z,9.05
2022-11-21T19:46:32.321Z,12.25
2022-11-21T19:49:00.087Z,8.57
2022-11-21T19:51:35.668Z,9.40
2022-11-21T19:54:03.693Z,8.40
2022-11-21T19:56:30.707Z,8.70
2022-11-21T19:58:58.853Z,6.88
2022-11-21T20:01:28.127Z,6.65
2022-11-21T20:03:57.787Z,7.10
2022-11-21T20:06:38.498Z,7.72
2022-11-21T20:09:12.152Z,7.55
2022-11-21T20:11:40.340Z,7.70
2022-11-21T20:14:07.285Z,7.53
2022-11-21T20:16:39.936Z,6.68
2022-11-21T20:19:09.995Z,7.43
2022-11-21T20:21:37.769Z,7.57
2022-11-21T20:24:05.240Z,6.72
2022-11-21T20:26:32.655Z,8.68
2022-11-21T20:28:59.904Z,7.10
2022-11-21T20:31:32.219Z,8.48
2022-11-21T20:34:01.153Z,10.27
2022-11-21T20:36:30.813Z,7.68
2022-11-21T20:39:09.069Z,7.97
2022-11-21T20:41:37.153Z,7.28
2022-11-21T20:46:52.642Z,7.97
2022-11-21T20:49:19.344Z,7.75
2022-11-21T20:54:33.217Z,6.93
2022-11-21T20:56:59.976Z,8.45
2022-11-21T20:59:27.561Z,8.80
2022-11-21T21:01:54.601Z,9.10
2022-11-21T21:04:21.239Z,10.13
2022-11-21T21:06:47.893Z,9.93
2022-11-21T21:09:14.499Z,10.57
2022-11-21T21:11:56.431Z,9.80
2022-11-21T21:14:23.074Z,9.68
2022-11-21T21:16:50.196Z,10.38
2022-11-21T21:19:17.511Z,11.52
2022-11-21T21:21:44.181Z,11.60
2022-11-21T21:24:11.851Z,11.70
2022-11-21T21:26:43.024Z,12.40
2022-11-21T21:29:11.826Z,12.23
2022-11-21T21:31:38.795Z,11.93
2022-11-21T21:34:05.582Z,12.88
2022-11-21T21:36:32.542Z,13.27
2022-11-21T21:39:00.486Z,14.38
2022-11-21T21:41:28.878Z,14.93
2022-11-21T21:43:56.361Z,14.38
2022-11-21T21:46:25.563Z,14.30
2022-11-21T21:48:57.214Z,15.20
2022-11-21T21:51:26.210Z,15.80
2022-11-21T21:53:54.792Z,15.82
2022-11-21T21:56:22.498Z,16.85
2022-11-21T21:58:49.936Z,17.02
2022-11-21T22:01:21.123Z,16.35
2022-11-21T22:03:48.469Z,17.10
2022-11-21T22:06:18.100Z,16.42
2022-11-21T22:08:46.547Z,18.52
2022-11-21T22:11:14.269Z,17.92
2022-11-21T22:13:43.627Z,19.45
2022-11-21T22:16:12.010Z,18.85
2022-11-21T22:18:39.495Z,18.27
2022-11-21T22:21:17.570Z,18.73
2022-11-21T22:24:02.939Z,19.08
2022-11-21T22:26:31.623Z,18.90
2022-11-21T22:28:58.351Z,18.10
2022-11-21T22:31:26.876Z,18.92
2022-11-21T22:33:53.422Z,20.95
2022-11-21T22:36:20.074Z,19.13
2022-11-21T22:38:46.689Z,18.98
2022-11-21T22:41:14.689Z,18.95
2022-11-21T22:43:41.840Z,19.45
2022-11-21T22:46:09.916Z,19.20
2022-11-21T22:48:36.692Z,18.45
2022-11-21T22:51:03.390Z,18.35
2022-11-21T22:53:30.152Z,18.92
2022-11-21T22:56:04.825Z,19.70
2022-11-21T22:58:33.952Z,18.40
2022-11-21T23:01:02.612Z,18.65
2022-11-21T23:03:31.174Z,18.48
2022-11-21T23:06:11.408Z,18.33
2022-11-21T23:08:38.763Z,18.15
2022-11-21T23:11:07.871Z,19.15
2022-11-21T23:13:35.923Z,18.73
2022-11-21T23:16:03.469Z,18.02
2022-11-21T23:18:30.120Z,18.80
2022-11-21T23:20:57.189Z,19.42
2022-11-21T23:23:23.905Z,19.98
2022-11-21T23:25:51.337Z,19.88
2022-11-21T23:28:18.604Z,20.10
2022-11-21T23:30:46.409Z,18.90
2022-11-21T23:33:13.346Z,19.30
2022-11-21T23:35:40.187Z,18.95
2022-11-21T23:38:06.763Z,19.20
2022-11-21T23:40:33.472Z,18.65
2022-11-21T23:43:00.778Z,18.80
2022-11-21T23:45:27.614Z,19.20
2022-11-21T23:47:54.223Z,18.25
2022-11-21T23:50:21.283Z,17.45
2022-11-21T23:52:48.497Z,19.20
2022-11-21T23:55:16.388Z,19.20
2022-11-21T23:57:47.569Z,17.90
